createdAt,value
2018-12-31T00:00:55.922Z,6.25
2018-12-31T00:01:56.154Z,6.27
2018-12-31T00:04:00.316Z,6.36
2018-12-31T00:05:00.603Z,6.22
2018-12-31T00:07:04.698Z,6.18
2018-12-31T00:08:04.935Z,6.18
2018-12-31T00:10:09.109Z,6.19
2018-12-31T00:11:09.339Z,6.25
2018-12-31T00:13:13.503Z,6.30
2018-12-31T00:14:13.737Z,6.28
2018-12-31T00:16:17.880Z,6.31
2018-12-31T00:17:18.113Z,6.31
2018-12-31T00:19:22.284Z,6.34
2018-12-31T00:20:22.519Z,6.27
2018-12-31T00:22:26.661Z,6.27
2018-12-31T00:23:26.894Z,6.30
2018-12-31T00:25:19.993Z,6.22
2018-12-31T00:26:20.225Z,6.25
2018-12-31T00:28:24.411Z,6.31
2018-12-31T00:29:24.638Z,6.19
2018-12-31T00:31:28.782Z,6.27
2018-12-31T00:32:29.018Z,6.27
2018-12-31T00:34:33.186Z,6.30
2018-12-31T00:35:33.420Z,6.31
2018-12-31T00:37:37.563Z,6.22
2018-12-31T00:38:37.796Z,6.36
2018-12-31T00:40:41.974Z,6.28
2018-12-31T00:41:42.205Z,6.27
2018-12-31T00:43:46.369Z,6.25
2018-12-31T00:44:46.599Z,6.18
2018-12-31T00:46:50.745Z,6.28
2018-12-31T00:47:50.971Z,6.25
2018-12-31T00:49:55.128Z,6.15
2018-12-31T00:50:55.361Z,6.33
2018-12-31T00:52:59.502Z,6.27
2018-12-31T00:53:59.736Z,6.22
2018-12-31T00:56:04.916Z,6.22
2018-12-31T00:57:05.150Z,6.30
2018-12-31T00:59:09.318Z,6.21
2018-12-31T01:00:09.556Z,6.27
2018-12-31T01:02:13.702Z,6.30
2018-12-31T01:03:14.019Z,6.22
2018-12-31T01:05:07.049Z,6.21
2018-12-31T01:06:07.262Z,6.34
2018-12-31T01:08:11.416Z,6.31
2018-12-31T01:09:11.645Z,6.36
2018-12-31T01:11:15.813Z,6.31
2018-12-31T01:12:16.051Z,6.31
2018-12-31T01:14:20.213Z,6.30
2018-12-31T01:15:20.448Z,6.40
2018-12-31T01:17:24.596Z,6.30
2018-12-31T01:18:24.839Z,6.28
2018-12-31T01:20:29.003Z,6.27
2018-12-31T01:21:29.237Z,6.38
2018-12-31T01:23:33.386Z,6.33
2018-12-31T01:24:33.622Z,6.34
2018-12-31T01:26:37.787Z,6.31
2018-12-31T01:27:38.021Z,6.49
2018-12-31T01:29:42.190Z,6.33
2018-12-31T01:30:42.426Z,6.28
2018-12-31T01:32:46.569Z,6.28
2018-12-31T01:33:46.802Z,6.30
2018-12-31T01:35:50.967Z,6.22
2018-12-31T01:36:51.201Z,6.46
2018-12-31T01:38:55.336Z,6.46
2018-12-31T01:39:55.584Z,6.36
2018-12-31T01:41:59.749Z,6.37
2018-12-31T01:42:59.987Z,6.38
2018-12-31T01:44:53.079Z,6.37
2018-12-31T01:45:53.314Z,6.36
2018-12-31T01:47:57.457Z,6.33
2018-12-31T01:48:57.692Z,6.36
2018-12-31T01:51:01.854Z,6.40
2018-12-31T01:52:02.086Z,6.34
2018-12-31T01:54:06.238Z,6.51
2018-12-31T01:55:06.467Z,6.43
2018-12-31T01:57:10.637Z,6.41
2018-12-31T01:58:10.873Z,6.52
2018-12-31T02:00:15.037Z,6.51
2018-12-31T02:01:15.273Z,6.49
2018-12-31T02:03:19.428Z,6.48
2018-12-31T02:04:19.655Z,6.54
2018-12-31T02:06:23.819Z,6.43
2018-12-31T02:07:24.104Z,6.40
2018-12-31T02:09:28.200Z,6.37
2018-12-31T02:10:28.436Z,6.34
2018-12-31T02:12:32.602Z,6.30
2018-12-31T02:13:32.853Z,6.31
2018-12-31T02:15:25.933Z,6.25
2018-12-31T02:16:26.171Z,6.30
2018-12-31T02:18:30.311Z,6.41
2018-12-31T02:19:30.552Z,6.40
2018-12-31T02:21:34.717Z,6.34
2018-12-31T02:22:34.952Z,6.43
2018-12-31T02:24:39.101Z,6.36
2018-12-31T02:25:39.340Z,6.38
2018-12-31T02:27:43.580Z,6.31
2018-12-31T02:28:43.737Z,6.48
2018-12-31T02:30:47.909Z,6.43
2018-12-31T02:31:48.139Z,6.38
2018-12-31T02:33:52.281Z,6.48
2018-12-31T02:34:52.517Z,6.38
2018-12-31T02:36:56.682Z,6.52
2018-12-31T02:37:56.914Z,6.46
2018-12-31T02:40:01.108Z,6.44
2018-12-31T02:41:01.326Z,6.44
2018-12-31T02:43:05.470Z,6.55
2018-12-31T02:44:05.707Z,6.46
2018-12-31T02:46:09.876Z,6.46
2018-12-31T02:47:10.117Z,6.36
2018-12-31T02:49:14.254Z,6.41
2018-12-31T02:50:14.486Z,6.46
2018-12-31T02:52:18.651Z,6.40
2018-12-31T02:53:18.890Z,6.43
2018-12-31T02:55:11.991Z,6.48
2018-12-31T02:56:12.225Z,6.43
2018-12-31T02:58:16.367Z,6.41
2018-12-31T02:59:16.605Z,6.37
2018-12-31T03:01:20.778Z,6.38
2018-12-31T03:02:21.011Z,6.51
2018-12-31T03:04:25.158Z,6.49
2018-12-31T03:05:25.391Z,6.37
2018-12-31T03:07:29.556Z,6.44
2018-12-31T03:08:29.802Z,6.43
2018-12-31T03:10:33.960Z,6.40
2018-12-31T03:11:34.193Z,6.37
2018-12-31T03:13:38.335Z,6.46
2018-12-31T03:14:38.570Z,6.33
2018-12-31T03:16:42.738Z,6.34
2018-12-31T03:17:42.976Z,6.36
2018-12-31T03:19:47.117Z,6.37
2018-12-31T03:20:47.351Z,6.40
2018-12-31T03:22:51.520Z,6.40
2018-12-31T03:23:51.747Z,6.37
2018-12-31T03:25:55.924Z,6.40
2018-12-31T03:26:56.159Z,6.34
2018-12-31T03:29:00.306Z,6.38
2018-12-31T03:30:00.542Z,6.30
2018-12-31T03:32:04.711Z,6.28
2018-12-31T03:33:04.952Z,6.36
2018-12-31T03:34:58.013Z,6.31
2018-12-31T03:35:58.248Z,6.30
2018-12-31T03:38:02.414Z,6.27
2018-12-31T03:39:02.658Z,6.33
2018-12-31T03:41:06.820Z,6.31
2018-12-31T03:42:07.053Z,6.27
2018-12-31T03:44:27.180Z,6.36
2018-12-31T03:45:11.503Z,6.28
2018-12-31T03:47:15.669Z,6.36
2018-12-31T03:48:15.904Z,6.27
2018-12-31T03:50:20.047Z,6.33
2018-12-31T03:51:20.281Z,6.30
2018-12-31T03:53:24.476Z,6.28
2018-12-31T03:54:24.710Z,6.28
2018-12-31T03:56:28.874Z,6.30
2018-12-31T03:57:29.123Z,6.34
2018-12-31T03:59:33.259Z,6.25
2018-12-31T04:00:33.491Z,6.37
2018-12-31T04:02:37.658Z,6.46
2018-12-31T04:03:37.893Z,6.34
2018-12-31T04:05:30.974Z,6.28
2018-12-31T04:06:31.264Z,6.30
2018-12-31T04:08:35.370Z,6.37
2018-12-31T04:09:35.610Z,6.37
2018-12-31T04:11:39.775Z,6.40
2018-12-31T04:12:40.014Z,6.30
2018-12-31T04:14:44.190Z,6.31
2018-12-31T04:15:44.402Z,6.27
2018-12-31T04:17:48.556Z,6.34
2018-12-31T04:18:48.791Z,6.31
2018-12-31T04:20:52.936Z,6.31
2018-12-31T04:21:53.174Z,6.33
2018-12-31T04:23:57.343Z,6.30
2018-12-31T04:24:57.579Z,6.27
2018-12-31T04:27:01.742Z,6.34
2018-12-31T04:28:01.977Z,6.33
2018-12-31T04:30:06.128Z,6.38
2018-12-31T04:31:06.361Z,6.28
2018-12-31T04:33:10.522Z,6.37
2018-12-31T04:34:10.758Z,6.27
2018-12-31T04:36:14.906Z,6.22
2018-12-31T04:37:15.141Z,6.28
2018-12-31T04:39:19.303Z,6.27
2018-12-31T04:40:19.540Z,6.28
2018-12-31T04:42:23.705Z,6.30
2018-12-31T04:43:23.941Z,6.33
2018-12-31T04:45:17.017Z,6.34
2018-12-31T04:46:17.338Z,6.21
2018-12-31T04:48:21.417Z,6.21
2018-12-31T04:49:21.660Z,6.25
2018-12-31T04:51:25.804Z,6.22
2018-12-31T04:52:26.047Z,6.22
2018-12-31T04:54:30.207Z,6.28
2018-12-31T04:55:30.441Z,6.33
2018-12-31T04:57:34.605Z,6.27
2018-12-31T04:58:34.844Z,6.28
2018-12-31T05:00:38.985Z,6.34
2018-12-31T05:01:39.221Z,6.37
2018-12-31T05:03:43.388Z,6.30
2018-12-31T05:04:43.619Z,6.30
2018-12-31T05:06:47.761Z,6.30
2018-12-31T05:07:47.996Z,6.28
2018-12-31T05:09:52.161Z,6.30
2018-12-31T05:10:52.396Z,6.31
2018-12-31T05:12:56.568Z,6.28
2018-12-31T05:13:56.800Z,6.31
2018-12-31T05:16:00.939Z,6.18
2018-12-31T05:17:01.176Z,6.25
2018-12-31T05:19:05.340Z,6.28
2018-12-31T05:20:05.578Z,6.30
2018-12-31T05:22:09.721Z,6.30
2018-12-31T05:23:09.967Z,6.28
2018-12-31T05:25:03.052Z,6.28
2018-12-31T05:26:03.288Z,6.17
2018-12-31T05:28:07.449Z,6.34
2018-12-31T05:29:07.684Z,6.27
2018-12-31T05:31:11.826Z,6.22
2018-12-31T05:32:12.061Z,6.22
2018-12-31T05:34:16.220Z,6.18
2018-12-31T05:35:16.454Z,6.36
2018-12-31T05:37:20.596Z,6.31
2018-12-31T05:38:20.832Z,6.22
2018-12-31T05:40:25.008Z,6.31
2018-12-31T05:41:25.246Z,6.36
2018-12-31T05:43:29.407Z,6.30
2018-12-31T05:44:29.646Z,6.28
2018-12-31T05:46:33.789Z,6.31
2018-12-31T05:47:34.029Z,6.31
2018-12-31T05:49:38.191Z,6.40
2018-12-31T05:50:38.425Z,6.41
2018-12-31T05:52:42.596Z,6.48
2018-12-31T05:53:42.833Z,6.34
2018-12-31T05:55:46.976Z,6.41
2018-12-31T05:56:47.211Z,6.41
2018-12-31T05:58:51.384Z,6.46
2018-12-31T05:59:51.617Z,6.36
2018-12-31T06:01:55.758Z,6.46
2018-12-31T06:02:55.997Z,6.37
2018-12-31T06:04:49.087Z,6.41
2018-12-31T06:05:49.321Z,6.44
2018-12-31T06:07:53.486Z,6.46
2018-12-31T06:08:53.722Z,6.44
2018-12-31T06:10:57.874Z,6.46
2018-12-31T06:11:58.111Z,6.51
2018-12-31T06:14:02.278Z,6.54
2018-12-31T06:15:02.516Z,6.51
2018-12-31T06:17:06.659Z,6.56
2018-12-31T06:18:06.894Z,6.54
2018-12-31T06:20:11.064Z,6.52
2018-12-31T06:21:11.306Z,6.46
2018-12-31T06:23:15.466Z,6.51
2018-12-31T06:24:15.702Z,6.52
2018-12-31T06:26:19.852Z,6.46
2018-12-31T06:27:20.085Z,6.51
2018-12-31T06:29:24.262Z,6.56
2018-12-31T06:30:24.496Z,6.59
2018-12-31T06:32:28.642Z,6.54
2018-12-31T06:33:28.878Z,6.58
2018-12-31T06:35:21.974Z,6.54
2018-12-31T06:36:22.211Z,6.54
2018-12-31T06:38:26.375Z,6.58
2018-12-31T06:39:26.610Z,6.55
2018-12-31T06:41:30.757Z,6.54
2018-12-31T06:42:30.993Z,6.55
2018-12-31T06:44:35.164Z,6.54
2018-12-31T06:45:35.398Z,6.54
2018-12-31T06:47:39.548Z,6.54
2018-12-31T06:48:39.783Z,6.54
2018-12-31T06:50:43.950Z,6.51
2018-12-31T06:51:44.189Z,6.51
2018-12-31T06:53:48.354Z,6.58
2018-12-31T06:54:48.592Z,6.58
2018-12-31T06:56:52.737Z,6.58
2018-12-31T06:57:52.975Z,6.56
2018-12-31T06:59:57.137Z,6.67
2018-12-31T07:00:57.378Z,6.61
2018-12-31T07:03:01.517Z,6.69
2018-12-31T07:04:01.754Z,6.52
2018-12-31T07:06:05.924Z,6.58
2018-12-31T07:07:06.160Z,6.64
2018-12-31T07:09:10.323Z,6.66
2018-12-31T07:10:10.559Z,6.64
2018-12-31T07:12:14.716Z,6.66
2018-12-31T07:13:14.952Z,6.70
2018-12-31T07:15:08.058Z,6.73
2018-12-31T07:16:08.294Z,6.64
2018-12-31T07:18:12.436Z,6.70
2018-12-31T07:19:12.677Z,6.64
2018-12-31T07:21:16.846Z,6.64
2018-12-31T07:22:17.083Z,6.70
2018-12-31T07:24:21.244Z,6.69
2018-12-31T07:25:21.478Z,6.77
2018-12-31T07:27:25.622Z,6.71
2018-12-31T07:28:25.860Z,6.71
2018-12-31T07:30:30.021Z,6.80
2018-12-31T07:31:30.260Z,6.70
2018-12-31T07:33:34.424Z,6.70
2018-12-31T07:34:34.660Z,6.71
2018-12-31T07:36:38.825Z,6.74
2018-12-31T07:37:39.059Z,6.74
2018-12-31T07:39:43.227Z,6.73
2018-12-31T07:40:43.465Z,6.67
2018-12-31T07:42:47.610Z,6.67
2018-12-31T07:43:47.841Z,6.67
2018-12-31T07:45:52.004Z,6.67
2018-12-31T07:46:52.241Z,6.71
2018-12-31T07:48:56.382Z,6.74
2018-12-31T07:49:56.617Z,6.76
2018-12-31T07:52:00.781Z,6.77
2018-12-31T07:53:01.017Z,6.73
2018-12-31T07:54:54.119Z,6.73
2018-12-31T07:55:54.352Z,6.71
2018-12-31T07:57:58.500Z,6.81
2018-12-31T07:58:58.740Z,6.81
2018-12-31T08:01:02.902Z,6.85
2018-12-31T08:02:03.136Z,6.87
2018-12-31T08:04:07.270Z,6.87
2018-12-31T08:05:07.516Z,6.70
2018-12-31T08:07:11.688Z,6.70
2018-12-31T08:08:11.924Z,6.80
2018-12-31T08:10:16.104Z,6.79
2018-12-31T08:11:16.339Z,6.79
2018-12-31T08:13:20.483Z,6.81
2018-12-31T08:14:20.718Z,6.84
2018-12-31T08:16:24.886Z,6.80
2018-12-31T08:17:25.117Z,6.77
2018-12-31T08:19:29.257Z,6.84
2018-12-31T08:20:29.495Z,6.85
2018-12-31T08:22:33.660Z,6.87
2018-12-31T08:23:33.898Z,6.91
2018-12-31T08:25:26.973Z,6.91
2018-12-31T08:26:27.209Z,6.87
2018-12-31T08:28:31.378Z,6.95
2018-12-31T08:29:31.613Z,6.98
2018-12-31T08:31:35.779Z,6.97
2018-12-31T08:32:36.014Z,7.07
2018-12-31T08:34:40.155Z,6.99
2018-12-31T08:35:40.396Z,6.99
2018-12-31T08:37:44.558Z,7.10
2018-12-31T08:38:44.795Z,7.06
2018-12-31T08:40:48.939Z,7.09
2018-12-31T08:41:49.177Z,7.13
2018-12-31T08:43:53.342Z,7.17
2018-12-31T08:44:53.579Z,7.20
2018-12-31T08:46:57.742Z,7.23
2018-12-31T08:47:57.978Z,7.21
2018-12-31T08:50:03.345Z,7.20
2018-12-31T08:51:02.358Z,7.30
2018-12-31T08:53:06.525Z,7.20
2018-12-31T08:54:06.760Z,7.20
2018-12-31T08:56:10.903Z,7.25
2018-12-31T08:57:11.140Z,7.21
2018-12-31T08:59:15.312Z,7.31
2018-12-31T09:00:15.548Z,7.37
2018-12-31T09:02:19.719Z,7.31
2018-12-31T09:03:19.958Z,7.34
2018-12-31T09:05:13.033Z,7.34
2018-12-31T09:06:13.269Z,7.23
2018-12-31T09:08:17.452Z,7.34
2018-12-31T09:09:17.686Z,7.35
2018-12-31T09:11:21.842Z,7.34
2018-12-31T09:12:22.078Z,7.32
2018-12-31T09:14:26.243Z,7.35
2018-12-31T09:15:26.480Z,7.40
2018-12-31T09:17:30.645Z,7.46
2018-12-31T09:18:30.884Z,7.46
2018-12-31T09:20:35.025Z,7.53
2018-12-31T09:21:35.263Z,7.60
2018-12-31T09:23:39.432Z,7.60
2018-12-31T09:24:44.632Z,7.63
2018-12-31T09:26:43.814Z,7.58
2018-12-31T09:27:44.052Z,7.60
2018-12-31T09:29:48.218Z,7.60
2018-12-31T09:30:48.453Z,7.53
2018-12-31T09:32:52.619Z,7.61
2018-12-31T09:33:52.856Z,7.77
2018-12-31T09:35:57.003Z,7.82
2018-12-31T09:36:57.241Z,7.85
2018-12-31T09:39:01.404Z,7.82
2018-12-31T09:40:01.645Z,7.77
2018-12-31T09:42:05.789Z,7.80
2018-12-31T09:43:06.028Z,7.89
2018-12-31T09:44:59.120Z,7.95
2018-12-31T09:45:59.357Z,7.90
2018-12-31T09:48:03.504Z,7.93
2018-12-31T09:49:03.737Z,7.87
2018-12-31T09:51:07.903Z,7.83
2018-12-31T09:52:08.140Z,7.92
2018-12-31T09:54:12.305Z,7.95
2018-12-31T09:55:12.540Z,7.98
2018-12-31T09:57:16.687Z,7.93
2018-12-31T09:58:16.926Z,8.07
2018-12-31T10:00:21.088Z,8.11
2018-12-31T10:01:21.327Z,8.20
2018-12-31T10:03:25.477Z,8.25
2018-12-31T10:04:25.713Z,8.38
2018-12-31T10:06:29.880Z,8.43
2018-12-31T10:07:30.127Z,8.28
2018-12-31T10:09:34.289Z,8.22
2018-12-31T10:10:34.526Z,8.29
2018-12-31T10:12:38.679Z,8.53
2018-12-31T10:13:38.915Z,8.61
2018-12-31T10:15:32.012Z,9.17
2018-12-31T10:16:32.250Z,9.20
2018-12-31T10:18:36.395Z,9.39
2018-12-31T10:19:36.634Z,9.51
2018-12-31T10:21:41.218Z,9.40
2018-12-31T10:22:41.043Z,9.32
2018-12-31T10:24:45.213Z,9.24
2018-12-31T10:25:45.452Z,9.11
2018-12-31T10:27:49.599Z,9.05
2018-12-31T10:28:49.835Z,9.04
2018-12-31T10:30:54.001Z,9.02
2018-12-31T10:31:54.239Z,9.04
2018-12-31T10:33:58.426Z,8.91
2018-12-31T10:34:58.664Z,8.95
2018-12-31T10:37:02.812Z,8.98
2018-12-31T10:38:03.050Z,8.87
2018-12-31T10:40:07.222Z,8.91
2018-12-31T10:41:07.458Z,8.84
2018-12-31T10:43:11.607Z,8.80
2018-12-31T10:44:11.864Z,8.76
2018-12-31T10:46:16.031Z,8.71
2018-12-31T10:47:16.262Z,8.79
2018-12-31T10:49:20.432Z,8.66
2018-12-31T10:50:20.671Z,8.70
2018-12-31T10:52:24.815Z,8.76
2018-12-31T10:53:25.052Z,8.79
2018-12-31T10:55:18.151Z,8.89
2018-12-31T10:56:18.389Z,9.04
2018-12-31T10:58:22.537Z,8.96
2018-12-31T10:59:22.774Z,9.21
2018-12-31T11:01:26.944Z,9.08
2018-12-31T11:02:27.180Z,9.11
2018-12-31T11:04:31.376Z,9.23
2018-12-31T11:05:31.613Z,9.29
2018-12-31T11:07:35.765Z,9.21
2018-12-31T11:08:36.003Z,9.23
2018-12-31T11:10:40.171Z,9.32
2018-12-31T11:11:40.409Z,9.18
2018-12-31T11:13:44.555Z,9.01
2018-12-31T11:14:44.796Z,9.08
2018-12-31T11:16:48.961Z,8.98
2018-12-31T11:17:49.198Z,9.13
2018-12-31T11:19:53.380Z,8.91
2018-12-31T11:20:53.618Z,8.92
2018-12-31T11:22:57.764Z,8.74
2018-12-31T11:23:58.004Z,8.74
2018-12-31T11:26:02.172Z,8.73
2018-12-31T11:27:02.406Z,8.65
2018-12-31T11:29:06.556Z,8.71
2018-12-31T11:30:06.794Z,8.70
2018-12-31T11:32:10.960Z,8.77
2018-12-31T11:33:11.202Z,8.77
2018-12-31T11:35:04.299Z,8.99
2018-12-31T11:36:04.538Z,9.11
2018-12-31T11:38:08.691Z,9.20
2018-12-31T11:39:08.932Z,9.15
2018-12-31T11:41:13.107Z,9.50
2018-12-31T11:42:13.351Z,10.25
2018-12-31T11:44:17.493Z,10.89
2018-12-31T11:45:17.731Z,11.06
2018-12-31T11:47:21.906Z,10.97
2018-12-31T11:48:22.143Z,11.04
2018-12-31T11:50:26.315Z,10.64
2018-12-31T11:51:26.553Z,10.40
2018-12-31T11:53:30.727Z,10.25
2018-12-31T11:54:30.967Z,9.91
2018-12-31T11:56:35.138Z,9.58
2018-12-31T11:57:35.379Z,9.50
2018-12-31T11:59:39.545Z,9.33
2018-12-31T12:00:39.787Z,9.24
2018-12-31T12:02:43.970Z,9.10
2018-12-31T12:03:44.207Z,9.21
2018-12-31T12:05:48.374Z,9.02
2018-12-31T12:06:48.613Z,9.08
2018-12-31T12:08:52.777Z,8.91
2018-12-31T12:09:53.007Z,8.89
2018-12-31T12:11:57.178Z,8.86
2018-12-31T12:12:57.416Z,8.80
2018-12-31T12:14:50.494Z,8.71
2018-12-31T12:15:50.733Z,8.70
2018-12-31T12:17:54.903Z,8.61
2018-12-31T12:18:55.139Z,8.59
2018-12-31T12:20:59.288Z,8.63
2018-12-31T12:21:59.526Z,8.68
2018-12-31T12:24:03.697Z,8.73
2018-12-31T12:25:03.937Z,8.77
2018-12-31T12:27:08.107Z,8.92
2018-12-31T12:28:08.343Z,9.10
2018-12-31T12:30:12.492Z,9.43
2018-12-31T12:31:12.727Z,9.72
2018-12-31T12:33:16.905Z,9.56
2018-12-31T12:34:17.148Z,9.53
2018-12-31T12:36:21.300Z,9.43
2018-12-31T12:37:21.538Z,9.46
2018-12-31T12:39:25.712Z,9.20
2018-12-31T12:40:25.949Z,9.31
2018-12-31T12:42:30.120Z,9.21
2018-12-31T12:43:30.358Z,9.14
2018-12-31T12:45:23.433Z,9.15
2018-12-31T12:46:23.673Z,9.05
2018-12-31T12:48:27.844Z,8.99
2018-12-31T12:49:28.081Z,8.98
2018-12-31T12:51:32.228Z,8.91
2018-12-31T12:52:32.470Z,8.83
2018-12-31T12:54:36.640Z,8.86
2018-12-31T12:55:36.875Z,8.79
2018-12-31T12:57:41.050Z,8.74
2018-12-31T12:58:41.290Z,8.71
2018-12-31T13:00:45.496Z,8.79
2018-12-31T13:01:45.735Z,8.80
2018-12-31T13:03:49.910Z,8.81
2018-12-31T13:04:50.158Z,8.84
2018-12-31T13:06:54.280Z,8.79
2018-12-31T13:07:54.518Z,8.89
2018-12-31T13:09:58.770Z,8.79
2018-12-31T13:10:58.931Z,8.81
2018-12-31T13:13:03.149Z,8.80
2018-12-31T13:14:03.389Z,8.89
2018-12-31T13:16:07.537Z,8.91
2018-12-31T13:17:07.779Z,8.87
2018-12-31T13:19:11.941Z,8.92
2018-12-31T13:20:12.178Z,8.84
2018-12-31T13:22:16.465Z,8.95
2018-12-31T13:23:16.920Z,8.89
2018-12-31T13:25:09.920Z,8.80
2018-12-31T13:26:10.162Z,8.74
2018-12-31T13:28:14.331Z,8.76
2018-12-31T13:29:15.049Z,8.74
2018-12-31T13:31:18.872Z,8.76
2018-12-31T13:32:19.185Z,8.73
2018-12-31T13:34:23.691Z,8.68
2018-12-31T13:35:23.726Z,8.65
2018-12-31T13:37:28.038Z,8.63
2018-12-31T13:38:28.257Z,8.66
2018-12-31T13:40:34.433Z,8.62
2018-12-31T13:41:33.875Z,8.68
2018-12-31T13:43:38.198Z,8.58
2018-12-31T13:44:38.445Z,8.63
2018-12-31T13:46:42.664Z,8.68
2018-12-31T13:47:43.022Z,8.66
2018-12-31T13:49:47.583Z,8.62
2018-12-31T13:50:47.595Z,8.66
2018-12-31T13:52:51.984Z,8.66
2018-12-31T13:53:52.327Z,8.65
2018-12-31T13:55:56.539Z,8.71
2018-12-31T13:56:56.575Z,8.56
2018-12-31T13:59:00.813Z,8.56
2018-12-31T14:00:01.077Z,8.65
2018-12-31T14:02:05.324Z,8.56
2018-12-31T14:03:05.635Z,8.63
2018-12-31T14:04:58.734Z,8.66
2018-12-31T14:06:00.859Z,8.53
2018-12-31T14:08:04.285Z,8.53
2018-12-31T14:09:04.580Z,8.53
2018-12-31T14:11:08.663Z,8.61
2018-12-31T14:12:08.902Z,8.56
2018-12-31T14:14:13.620Z,8.56
2018-12-31T14:15:13.434Z,8.45
2018-12-31T14:17:17.650Z,8.50
2018-12-31T14:18:17.884Z,8.50
2018-12-31T14:20:22.226Z,8.56
2018-12-31T14:21:22.400Z,8.55
2018-12-31T14:23:26.621Z,8.48
2018-12-31T14:24:27.033Z,8.48
2018-12-31T14:26:31.345Z,8.45
2018-12-31T14:27:31.583Z,8.45
2018-12-31T14:29:35.883Z,8.41
2018-12-31T14:30:36.120Z,8.47
2018-12-31T14:32:40.268Z,8.43
2018-12-31T14:33:40.507Z,8.38
2018-12-31T14:35:33.602Z,8.41
2018-12-31T14:36:33.841Z,8.45
2018-12-31T14:38:37.987Z,8.44
2018-12-31T14:39:38.226Z,8.47
2018-12-31T14:41:42.395Z,8.41
2018-12-31T14:42:42.630Z,8.50
2018-12-31T14:44:46.808Z,8.40
2018-12-31T14:45:47.050Z,8.40
2018-12-31T14:47:51.198Z,8.47
2018-12-31T14:48:51.432Z,8.50
2018-12-31T14:50:55.601Z,8.45
2018-12-31T14:51:55.842Z,8.45
2018-12-31T14:53:59.985Z,8.40
2018-12-31T14:55:00.279Z,8.45
2018-12-31T14:57:04.390Z,8.45
2018-12-31T14:58:04.627Z,8.41
2018-12-31T15:00:08.801Z,8.41
2018-12-31T15:01:09.038Z,8.44
2018-12-31T15:03:13.185Z,8.43
2018-12-31T15:04:13.424Z,8.37
2018-12-31T15:06:17.592Z,8.41
2018-12-31T15:07:17.829Z,8.36
2018-12-31T15:09:21.974Z,8.30
2018-12-31T15:10:22.209Z,8.36
2018-12-31T15:12:26.379Z,8.36
2018-12-31T15:13:26.615Z,8.37
2018-12-31T15:15:19.971Z,8.38
2018-12-31T15:16:19.981Z,8.34
2018-12-31T15:18:24.127Z,8.33
2018-12-31T15:19:24.363Z,8.29
2018-12-31T15:21:28.529Z,8.28
2018-12-31T15:22:29.259Z,8.29
2018-12-31T15:24:32.912Z,8.34
2018-12-31T15:25:33.149Z,8.34
2018-12-31T15:27:37.320Z,8.34
2018-12-31T15:28:37.558Z,8.36
2018-12-31T15:30:41.726Z,8.30
2018-12-31T15:31:41.963Z,8.33
2018-12-31T15:33:46.109Z,8.25
2018-12-31T15:34:46.343Z,8.30
2018-12-31T15:36:50.512Z,8.30
2018-12-31T15:37:50.747Z,8.23
2018-12-31T15:39:54.897Z,8.26
2018-12-31T15:40:55.136Z,8.25
2018-12-31T15:42:59.303Z,8.28
2018-12-31T15:43:59.541Z,8.23
2018-12-31T15:46:03.726Z,8.22
2018-12-31T15:47:03.962Z,8.23
2018-12-31T15:49:08.117Z,8.25
2018-12-31T15:50:08.356Z,8.22
2018-12-31T15:52:12.525Z,8.20
2018-12-31T15:53:12.762Z,8.34
2018-12-31T15:55:05.833Z,8.23
2018-12-31T15:56:06.072Z,8.20
2018-12-31T15:58:10.238Z,8.28
2018-12-31T15:59:10.477Z,8.22
2018-12-31T16:01:14.658Z,8.28
2018-12-31T16:02:14.897Z,8.26
2018-12-31T16:04:19.041Z,8.23
2018-12-31T16:05:19.280Z,8.22
2018-12-31T16:07:23.462Z,8.33
2018-12-31T16:08:23.700Z,8.33
2018-12-31T16:10:27.844Z,8.28
2018-12-31T16:11:28.082Z,8.28
2018-12-31T16:13:32.265Z,8.25
2018-12-31T16:14:32.499Z,8.10
2018-12-31T16:16:36.674Z,8.10
2018-12-31T16:17:36.912Z,8.00
2018-12-31T16:19:41.071Z,7.90
2018-12-31T16:20:41.306Z,7.93
2018-12-31T16:22:45.471Z,7.92
2018-12-31T16:23:45.710Z,7.93
2018-12-31T16:25:49.857Z,7.89
2018-12-31T16:26:50.099Z,7.87
2018-12-31T16:28:54.268Z,7.90
2018-12-31T16:29:54.505Z,8.02
2018-12-31T16:31:58.680Z,8.10
2018-12-31T16:32:58.918Z,8.07
2018-12-31T16:34:51.999Z,8.05
2018-12-31T16:35:52.231Z,8.01
2018-12-31T16:37:56.398Z,8.02
2018-12-31T16:38:56.638Z,7.89
2018-12-31T16:41:00.783Z,7.98
2018-12-31T16:42:01.022Z,8.02
2018-12-31T16:44:05.195Z,8.08
2018-12-31T16:45:05.430Z,7.98
2018-12-31T16:47:09.640Z,7.97
2018-12-31T16:48:09.876Z,7.93
2018-12-31T16:50:14.042Z,8.00
2018-12-31T16:51:14.281Z,8.02
2018-12-31T16:53:18.452Z,8.10
2018-12-31T16:54:18.691Z,8.10
2018-12-31T16:56:22.839Z,8.15
2018-12-31T16:57:23.080Z,8.10
2018-12-31T16:59:28.261Z,7.97
2018-12-31T17:00:28.518Z,8.00
2018-12-31T17:02:32.667Z,7.97
2018-12-31T17:03:32.904Z,7.97
2018-12-31T17:05:25.979Z,8.04
2018-12-31T17:06:26.225Z,8.07
2018-12-31T17:08:30.420Z,8.05
2018-12-31T17:09:30.660Z,8.01
2018-12-31T17:11:34.813Z,8.07
2018-12-31T17:12:35.049Z,8.00
2018-12-31T17:14:39.222Z,8.01
2018-12-31T17:15:39.461Z,7.92
2018-12-31T17:17:43.658Z,7.89
2018-12-31T17:18:43.891Z,7.98
2018-12-31T17:20:48.042Z,7.87
2018-12-31T17:21:48.279Z,8.00
2018-12-31T17:23:52.452Z,7.92
2018-12-31T17:24:52.760Z,7.97
2018-12-31T17:26:56.835Z,7.90
2018-12-31T17:27:57.073Z,7.92
2018-12-31T17:30:02.792Z,7.92
2018-12-31T17:31:03.014Z,7.92
2018-12-31T17:33:07.160Z,7.90
2018-12-31T17:34:07.396Z,7.95
2018-12-31T17:36:13.063Z,8.01
2018-12-31T17:37:13.300Z,7.93
2018-12-31T17:39:17.480Z,7.90
2018-12-31T17:40:17.719Z,8.01
2018-12-31T17:42:22.900Z,7.92
2018-12-31T17:43:23.137Z,7.95
2018-12-31T17:45:23.055Z,7.93
2018-12-31T17:46:17.969Z,8.00
2018-12-31T17:48:22.135Z,7.90
2018-12-31T17:49:22.373Z,7.97
2018-12-31T17:51:27.054Z,7.95
2018-12-31T17:52:27.292Z,7.93
2018-12-31T17:54:31.473Z,7.93
2018-12-31T17:55:31.710Z,7.92
2018-12-31T17:57:37.365Z,8.04
2018-12-31T17:58:37.605Z,8.07
2018-12-31T18:00:42.805Z,8.07
2018-12-31T18:01:42.588Z,8.08
2018-12-31T18:03:46.748Z,8.12
2018-12-31T18:04:46.985Z,8.07
2018-12-31T18:06:51.163Z,8.07
2018-12-31T18:07:51.403Z,7.97
2018-12-31T18:09:55.571Z,8.00
2018-12-31T18:10:55.807Z,8.05
2018-12-31T18:12:59.957Z,8.01
2018-12-31T18:14:00.194Z,7.93
2018-12-31T18:16:04.363Z,7.89
2018-12-31T18:17:04.603Z,7.92
2018-12-31T18:19:08.775Z,7.93
2018-12-31T18:20:09.013Z,7.98
2018-12-31T18:22:13.167Z,7.90
2018-12-31T18:23:13.399Z,8.00
2018-12-31T18:25:06.501Z,8.05
2018-12-31T18:26:06.736Z,7.93
2018-12-31T18:28:10.890Z,8.02
2018-12-31T18:29:11.127Z,7.95
2018-12-31T18:31:15.295Z,8.02
2018-12-31T18:32:15.540Z,8.02
2018-12-31T18:34:19.684Z,8.00
2018-12-31T18:35:19.928Z,7.97
2018-12-31T18:37:24.097Z,7.90
2018-12-31T18:38:24.335Z,7.87
2018-12-31T18:40:28.506Z,7.89
2018-12-31T18:41:28.745Z,8.00
2018-12-31T18:43:32.900Z,7.93
2018-12-31T18:44:33.133Z,7.92
2018-12-31T18:46:37.379Z,7.98
2018-12-31T18:47:37.542Z,7.90
2018-12-31T18:49:41.695Z,7.95
2018-12-31T18:50:41.934Z,7.92
2018-12-31T18:52:46.106Z,8.00
2018-12-31T18:53:46.342Z,7.92
2018-12-31T18:55:50.512Z,7.93
2018-12-31T18:56:50.755Z,7.98
2018-12-31T18:58:54.901Z,8.07
2018-12-31T18:59:55.142Z,7.98
2018-12-31T19:01:59.314Z,7.98
2018-12-31T19:02:59.551Z,7.98
2018-12-31T19:04:52.640Z,8.00
2018-12-31T19:05:52.875Z,8.02
2018-12-31T19:07:57.046Z,8.01
2018-12-31T19:08:57.281Z,8.05
2018-12-31T19:11:01.454Z,8.07
2018-12-31T19:12:01.692Z,8.04
2018-12-31T19:14:05.841Z,7.95
2018-12-31T19:15:06.077Z,7.95
2018-12-31T19:17:10.250Z,8.10
2018-12-31T19:18:10.489Z,8.01
2018-12-31T19:20:14.641Z,8.05
2018-12-31T19:21:14.876Z,8.08
2018-12-31T19:23:19.049Z,8.02
2018-12-31T19:24:19.284Z,8.05
2018-12-31T19:26:23.454Z,7.98
2018-12-31T19:27:23.687Z,7.95
2018-12-31T19:29:27.839Z,7.98
2018-12-31T19:30:28.075Z,8.07
2018-12-31T19:32:32.250Z,7.98
2018-12-31T19:33:32.487Z,7.95
2018-12-31T19:35:25.562Z,8.10
2018-12-31T19:36:25.801Z,8.00
2018-12-31T19:38:29.974Z,8.08
2018-12-31T19:39:30.211Z,8.12
2018-12-31T19:41:34.383Z,8.07
2018-12-31T19:42:34.621Z,8.10
2018-12-31T19:44:38.772Z,8.10
2018-12-31T19:45:39.014Z,7.98
2018-12-31T19:47:43.185Z,8.18
2018-12-31T19:48:43.424Z,8.12
2018-12-31T19:50:47.573Z,8.07
2018-12-31T19:51:47.808Z,8.00
2018-12-31T19:53:51.983Z,8.02
2018-12-31T19:54:52.222Z,7.98
2018-12-31T19:56:56.398Z,8.07
2018-12-31T19:57:56.628Z,7.98
2018-12-31T20:00:00.782Z,8.01
2018-12-31T20:01:01.024Z,7.98
2018-12-31T20:03:05.194Z,7.97
2018-12-31T20:04:05.430Z,7.89
2018-12-31T20:06:09.586Z,7.86
2018-12-31T20:07:09.820Z,7.86
2018-12-31T20:09:14.001Z,7.98
2018-12-31T20:10:14.240Z,7.92
2018-12-31T20:12:18.414Z,7.97
2018-12-31T20:13:18.651Z,8.02
2018-12-31T20:15:11.734Z,7.95
2018-12-31T20:16:11.973Z,8.07
2018-12-31T20:18:16.151Z,8.02
2018-12-31T20:19:16.391Z,8.00
2018-12-31T20:21:20.544Z,7.98